sensor_id;sensor_type;location;lat;lon;timestamp;P1;P2;P0
65360;PMS5003;51958;55.018;73.536;2023-04-24T05:58:39;7.33;7.33;4.00
65360;PMS5003;51958;55.018;73.536;2023-04-24T06:01:40;7.33;7.00;3.00
65360;PMS5003;51958;55.018;73.536;2023-04-24T06:04:52;7.33;7.00;3.00
65360;PMS5003;51958;55.018;73.536;2023-04-24T06:07:54;4.33;3.67;1.00
65360;PMS5003;51958;55.018;73.536;2023-04-24T06:10:57;5.00;4.00;2.00
65360;PMS5003;51958;55.018;73.536;2023-04-24T06:13:59;7.00;7.00;3.00
65360;PMS5003;51958;55.018;73.536;2023-04-24T06:17:22;6.00;6.00;3.00
65360;PMS5003;51958;55.018;73.536;2023-04-24T06:20:34;7.00;7.00;3.00
65360;PMS5003;51958;55.018;73.536;2023-04-24T06:23:46;7.33;7.00;4.00
65360;PMS5003;51958;55.018;73.536;2023-04-24T06:26:54;6.00;6.00;2.00
65360;PMS5003;51958;55.018;73.536;2023-04-24T06:30:00;4.67;4.67;2.00
65360;PMS5003;51958;55.018;73.536;2023-04-24T06:33:01;6.33;6.33;2.33
65360;PMS5003;51958;55.018;73.536;2023-04-24T06:36:02;6.25;6.25;2.25
65360;PMS5003;51958;55.018;73.536;2023-04-24T06:39:05;6.00;6.00;2.00
65360;PMS5003;51958;55.018;73.536;2023-04-24T06:42:08;4.75;4.50;2.00
65360;PMS5003;51958;55.018;73.536;2023-04-24T06:45:10;5.50;4.75;1.00
65360;PMS5003;51958;55.018;73.536;2023-04-24T06:48:11;5.00;5.00;1.00
65360;PMS5003;51958;55.018;73.536;2023-04-24T06:51:12;7.00;6.00;3.00
65360;PMS5003;51958;55.018;73.536;2023-04-24T06:54:13;5.25;5.00;2.00
65360;PMS5003;51958;55.018;73.536;2023-04-24T06:57:19;6.33;5.67;1.67
65360;PMS5003;51958;55.018;73.536;2023-04-24T07:00:20;5.75;5.00;2.00
65360;PMS5003;51958;55.018;73.536;2023-04-24T07:03:21;4.00;4.00;2.00
65360;PMS5003;51958;55.018;73.536;2023-04-24T07:06:22;3.00;3.00;1.00
65360;PMS5003;51958;55.018;73.536;2023-04-24T07:09:25;4.00;4.00;3.00
65360;PMS5003;51958;55.018;73.536;2023-04-24T07:12:26;4.75;4.50;2.00
65360;PMS5003;51958;55.018;73.536;2023-04-24T07:15:32;4.00;4.00;2.00
65360;PMS5003;51958;55.018;73.536;2023-04-24T07:18:34;5.67;5.00;2.00
65360;PMS5003;51958;55.018;73.536;2023-04-24T07:21:35;5.00;4.00;2.00
65360;PMS5003;51958;55.018;73.536;2023-04-24T07:24:46;5.00;5.00;2.00
65360;PMS5003;51958;55.018;73.536;2023-04-24T07:27:47;4.67;4.67;0.00
65360;PMS5003;51958;55.018;73.536;2023-04-24T07:30:49;4.00;3.00;0.00
65360;PMS5003;51958;55.018;73.536;2023-04-24T07:33:50;3.00;3.00;0.00
65360;PMS5003;51958;55.018;73.536;2023-04-24T07:36:51;5.00;5.00;1.50
65360;PMS5003;51958;55.018;73.536;2023-04-24T07:39:52;6.00;6.00;3.00
65360;PMS5003;51958;55.018;73.536;2023-04-24T07:42:58;5.00;5.00;2.00
65360;PMS5003;51958;55.018;73.536;2023-04-24T07:46:00;5.00;4.00;2.00
65360;PMS5003;51958;55.018;73.536;2023-04-24T07:49:03;4.00;4.00;1.00
65360;PMS5003;51958;55.018;73.536;2023-04-24T07:52:09;5.00;4.00;3.00
65360;PMS5003;51958;55.018;73.536;2023-04-24T07:55:10;5.00;4.00;1.00
65360;PMS5003;51958;55.018;73.536;2023-04-24T07:58:16;4.00;4.00;1.00
65360;PMS5003;51958;55.018;73.536;2023-04-24T08:01:17;4.00;4.00;1.00
65360;PMS5003;51958;55.018;73.536;2023-04-24T08:04:18;4.00;4.00;1.00
65360;PMS5003;51958;55.018;73.536;2023-04-24T08:07:19;7.67;7.67;2.33
65360;PMS5003;51958;55.018;73.536;2023-04-24T08:10:21;4.00;4.00;1.00
65360;PMS5003;51958;55.018;73.536;2023-04-24T08:13:23;6.00;6.00;2.00
65360;PMS5003;51958;55.018;73.536;2023-04-24T08:16:24;3.67;3.67;0.00
65360;PMS5003;51958;55.018;73.536;2023-04-24T08:19:25;5.00;4.00;0.00
65360;PMS5003;51958;55.018;73.536;2023-04-24T08:22:26;5.00;5.00;0.00
65360;PMS5003;51958;55.018;73.536;2023-04-24T08:25:38;5.00;5.00;1.00
65360;PMS5003;51958;55.018;73.536;2023-04-24T08:28:44;2.67;2.67;0.00
65360;PMS5003;51958;55.018;73.536;2023-04-24T08:31:45;5.33;5.00;1.00
65360;PMS5003;51958;55.018;73.536;2023-04-24T08:34:46;3.00;3.00;0.00
65360;PMS5003;51958;55.018;73.536;2023-04-24T08:37:47;3.00;3.00;0.00
65360;PMS5003;51958;55.018;73.536;2023-04-24T08:40:59;3.67;3.67;0.00
65360;PMS5003;51958;55.018;73.536;2023-04-24T08:44:02;3.00;2.00;0.00
65360;PMS5003;51958;55.018;73.536;2023-04-24T08:47:03;4.00;4.00;0.00
65360;PMS5003;51958;55.018;73.536;2023-04-24T08:50:09;6.67;6.00;1.00
65360;PMS5003;51958;55.018;73.536;2023-04-24T08:53:10;4.00;4.00;1.00
65360;PMS5003;51958;55.018;73.536;2023-04-24T08:56:11;3.00;2.00;0.00
65360;PMS5003;51958;55.018;73.536;2023-04-24T08:59:16;5.00;5.00;0.00
65360;PMS5003;51958;55.018;73.536;2023-04-24T09:02:17;5.00;5.00;1.00
65360;PMS5003;51958;55.018;73.536;2023-04-24T09:05:20;3.00;3.00;2.00
65360;PMS5003;51958;55.018;73.536;2023-04-24T09:08:22;4.00;4.00;0.00
65360;PMS5003;51958;55.018;73.536;2023-04-24T09:11:35;4.00;3.67;0.00
65360;PMS5003;51958;55.018;73.536;2023-04-24T09:14:37;3.67;3.00;0.00
65360;PMS5003;51958;55.018;73.536;2023-04-24T09:17:45;2.00;1.00;0.00
65360;PMS5003;51958;55.018;73.536;2023-04-24T09:21:00;1.00;1.00;0.00
65360;PMS5003;51958;55.018;73.536;2023-04-24T09:24:14;3.00;3.00;0.00
65360;PMS5003;51958;55.018;73.536;2023-04-24T09:27:18;7.00;5.00;0.00
65360;PMS5003;51958;55.018;73.536;2023-04-24T09:30:25;3.00;3.00;0.00
65360;PMS5003;51958;55.018;73.536;2023-04-24T09:33:36;3.00;2.00;0.00
65360;PMS5003;51958;55.018;73.536;2023-04-24T09:36:37;3.00;3.00;0.00
65360;PMS5003;51958;55.018;73.536;2023-04-24T09:39:39;1.00;1.00;0.00
65360;PMS5003;51958;55.018;73.536;2023-04-24T09:42:51;1.00;1.00;0.00
65360;PMS5003;51958;55.018;73.536;2023-04-24T09:46:06;0.00;0.00;0.00
65360;PMS5003;51958;55.018;73.536;2023-04-24T09:49:08;2.67;2.00;0.00
65360;PMS5003;51958;55.018;73.536;2023-04-24T09:52:21;2.00;2.00;0.00
65360;PMS5003;51958;55.018;73.536;2023-04-24T09:55:23;2.00;2.00;0.00
65360;PMS5003;51958;55.018;73.536;2023-04-24T09:58:24;4.00;4.00;0.00
65360;PMS5003;51958;55.018;73.536;2023-04-24T10:01:33;2.00;2.00;0.00
65360;PMS5003;51958;55.018;73.536;2023-04-24T10:04:35;3.00;3.00;0.00
65360;PMS5003;51958;55.018;73.536;2023-04-24T10:07:37;3.00;3.00;0.00
65360;PMS5003;51958;55.018;73.536;2023-04-24T10:10:39;1.00;1.00;0.00
65360;PMS5003;51958;55.018;73.536;2023-04-24T10:13:40;0.00;0.00;0.00
65360;PMS5003;51958;55.018;73.536;2023-04-24T10:16:42;0.00;0.00;0.00
65360;PMS5003;51958;55.018;73.536;2023-04-24T10:19:43;0.00;0.00;0.00
65360;PMS5003;51958;55.018;73.536;2023-04-24T10:22:47;2.00;0.00;0.00
65360;PMS5003;51958;55.018;73.536;2023-04-24T10:25:50;1.00;1.00;0.00
65360;PMS5003;51958;55.018;73.536;2023-04-24T10:28:51;0.00;0.00;0.00
65360;PMS5003;51958;55.018;73.536;2023-04-24T10:32:03;0.00;0.00;0.00
65360;PMS5003;51958;55.018;73.536;2023-04-24T10:35:07;0.00;0.00;0.00
65360;PMS5003;51958;55.018;73.536;2023-04-24T10:38:09;0.00;0.00;0.00
65360;PMS5003;51958;55.018;73.536;2023-04-24T10:41:12;0.00;0.00;0.00
65360;PMS5003;51958;55.018;73.536;2023-04-24T10:44:27;0.00;0.00;0.00
65360;PMS5003;51958;55.018;73.536;2023-04-24T10:47:39;0.00;0.00;0.00
65360;PMS5003;51958;55.018;73.536;2023-04-24T10:50:43;0.00;0.00;0.00
65360;PMS5003;51958;55.018;73.536;2023-04-24T10:53:44;0.00;0.00;0.00
65360;PMS5003;51958;55.018;73.536;2023-04-24T10:56:45;0.00;0.00;0.00
65360;PMS5003;51958;55.018;73.536;2023-04-24T10:59:46;0.00;0.00;0.00
65360;PMS5003;51958;55.018;73.536;2023-04-24T11:02:48;0.00;0.00;0.00
65360;PMS5003;51958;55.018;73.536;2023-04-24T11:09:18;0.00;0.00;0.00
65360;PMS5003;51958;55.018;73.536;2023-04-24T11:12:19;0.00;0.00;0.00
65360;PMS5003;51958;55.018;73.536;2023-04-24T11:15:20;0.00;0.00;0.00
65360;PMS5003;51958;55.018;73.536;2023-04-24T11:18:22;0.00;0.00;0.00
65360;PMS5003;51958;55.018;73.536;2023-04-24T11:21:23;0.00;0.00;0.00
65360;PMS5003;51958;55.018;73.536;2023-04-24T11:24:25;0.67;0.00;0.00
65360;PMS5003;51958;55.018;73.536;2023-04-24T11:27:41;0.00;0.00;0.00
65360;PMS5003;51958;55.018;73.536;2023-04-24T11:30:42;0.00;0.00;0.00
65360;PMS5003;51958;55.018;73.536;2023-04-24T11:33:43;0.00;0.00;0.00
65360;PMS5003;51958;55.018;73.536;2023-04-24T11:36:46;0.00;0.00;0.00
65360;PMS5003;51958;55.018;73.536;2023-04-24T11:39:50;0.00;0.00;0.00
65360;PMS5003;51958;55.018;73.536;2023-04-24T11:42:51;0.00;0.00;0.00
65360;PMS5003;51958;55.018;73.536;2023-04-24T11:45:59;0.00;0.00;0.00
65360;PMS5003;51958;55.018;73.536;2023-04-24T11:49:01;0.00;0.00;0.00
65360;PMS5003;51958;55.018;73.536;2023-04-24T11:52:09;0.00;0.00;0.00
65360;PMS5003;51958;55.018;73.536;2023-04-24T11:58:20;0.00;0.00;0.00
65360;PMS5003;51958;55.018;73.536;2023-04-24T12:01:23;0.00;0.00;0.00
65360;PMS5003;51958;55.018;73.536;2023-04-24T12:04:24;0.00;0.00;0.00
65360;PMS5003;51958;55.018;73.536;2023-04-24T12:07:25;0.00;0.00;0.00
65360;PMS5003;51958;55.018;73.536;2023-04-24T12:10:27;0.00;0.00;0.00
65360;PMS5003;51958;55.018;73.536;2023-04-24T12:13:28;0.00;0.00;0.00
65360;PMS5003;51958;55.018;73.536;2023-04-24T12:16:29;0.00;0.00;0.00
65360;PMS5003;51958;55.018;73.536;2023-04-24T12:19:36;0.00;0.00;0.00
65360;PMS5003;51958;55.018;73.536;2023-04-24T12:25:59;0.00;0.00;0.00
65360;PMS5003;51958;55.018;73.536;2023-04-24T12:29:01;0.00;0.00;0.00
65360;PMS5003;51958;55.018;73.536;2023-04-24T12:32:03;0.00;0.00;0.00
65360;PMS5003;51958;55.018;73.536;2023-04-24T12:35:05;0.00;0.00;0.00
65360;PMS5003;51958;55.018;73.536;2023-04-24T12:38:07;0.00;0.00;0.00
65360;PMS5003;51958;55.018;73.536;2023-04-24T12:41:22;0.00;0.00;0.00
65360;PMS5003;51958;55.018;73.536;2023-04-24T12:44:35;0.00;0.00;0.00
65360;PMS5003;51958;55.018;73.536;2023-04-24T12:47:43;0.00;0.00;0.00
65360;PMS5003;51958;55.018;73.536;2023-04-24T12:50:44;0.00;0.00;0.00
65360;PMS5003;51958;55.018;73.536;2023-04-24T12:53:45;0.00;0.00;0.00
65360;PMS5003;51958;55.018;73.536;2023-04-24T12:56:46;0.00;0.00;0.00
65360;PMS5003;51958;55.018;73.536;2023-04-24T12:59:48;0.00;0.00;0.00
65360;PMS5003;51958;55.018;73.536;2023-04-24T13:02:49;0.00;0.00;0.00
65360;PMS5003;51958;55.018;73.536;2023-04-24T13:05:51;0.00;0.00;0.00
65360;PMS5003;51958;55.018;73.536;2023-04-24T13:08:52;0.00;0.00;0.00
65360;PMS5003;51958;55.018;73.536;2023-04-24T13:11:55;0.33;0.00;0.00
65360;PMS5003;51958;55.018;73.536;2023-04-24T13:15:03;0.00;0.00;0.00
65360;PMS5003;51958;55.018;73.536;2023-04-24T13:18:14;0.00;0.00;0.00
65360;PMS5003;51958;55.018;73.536;2023-04-24T13:21:15;0.00;0.00;0.00
65360;PMS5003;51958;55.018;73.536;2023-04-24T13:24:16;0.00;0.00;0.00
65360;PMS5003;51958;55.018;73.536;2023-04-24T13:27:18;0.00;0.00;0.00
65360;PMS5003;51958;55.018;73.536;2023-04-24T13:30:20;0.00;0.00;0.00
65360;PMS5003;51958;55.018;73.536;2023-04-24T13:33:21;0.00;0.00;0.00
65360;PMS5003;51958;55.018;73.536;2023-04-24T13:36:27;0.00;0.00;0.00
65360;PMS5003;51958;55.018;73.536;2023-04-24T13:39:28;0.00;0.00;0.00
65360;PMS5003;51958;55.018;73.536;2023-04-24T13:42:35;0.00;0.00;0.00
65360;PMS5003;51958;55.018;73.536;2023-04-24T13:45:37;0.00;0.00;0.00
65360;PMS5003;51958;55.018;73.536;2023-04-24T13:48:48;0.00;0.00;0.00
65360;PMS5003;51958;55.018;73.536;2023-04-24T13:51:49;0.00;0.00;0.00
65360;PMS5003;51958;55.018;73.536;2023-04-24T13:54:50;0.00;0.00;0.00
65360;PMS5003;51958;55.018;73.536;2023-04-24T13:57:51;0.00;0.00;0.00
65360;PMS5003;51958;55.018;73.536;2023-04-24T14:01:06;0.00;0.00;0.00
65360;PMS5003;51958;55.018;73.536;2023-04-24T14:04:14;0.00;0.00;0.00
65360;PMS5003;51958;55.018;73.536;2023-04-24T14:10:45;0.00;0.00;0.00
65360;PMS5003;51958;55.018;73.536;2023-04-24T14:13:46;0.00;0.00;0.00
65360;PMS5003;51958;55.018;73.536;2023-04-24T14:16:47;0.00;0.00;0.00
65360;PMS5003;51958;55.018;73.536;2023-04-24T14:19:49;0.00;0.00;0.00
65360;PMS5003;51958;55.018;73.536;2023-04-24T14:22:51;0.00;0.00;0.00
65360;PMS5003;51958;55.018;73.536;2023-04-24T14:25:52;0.00;0.00;0.00
65360;PMS5003;51958;55.018;73.536;2023-04-24T14:28:53;0.00;0.00;0.00
65360;PMS5003;51958;55.018;73.536;2023-04-24T14:31:59;0.00;0.00;0.00
65360;PMS5003;51958;55.018;73.536;2023-04-24T14:35:01;0.00;0.00;0.00
65360;PMS5003;51958;55.018;73.536;2023-04-24T14:38:10;0.00;0.00;0.00
65360;PMS5003;51958;55.018;73.536;2023-04-24T14:41:11;0.00;0.00;0.00
65360;PMS5003;51958;55.018;73.536;2023-04-24T14:44:12;0.00;0.00;0.00
65360;PMS5003;51958;55.018;73.536;2023-04-24T14:47:13;0.00;0.00;0.00
65360;PMS5003;51958;55.018;73.536;2023-04-24T14:50:15;0.00;0.00;0.00
65360;PMS5003;51958;55.018;73.536;2023-04-24T14:53:16;0.00;0.00;0.00
65360;PMS5003;51958;55.018;73.536;2023-04-24T14:56:17;0.00;0.00;0.00
65360;PMS5003;51958;55.018;73.536;2023-04-24T14:59:18;0.00;0.00;0.00
65360;PMS5003;51958;55.018;73.536;2023-04-24T15:02:29;0.00;0.00;0.00
65360;PMS5003;51958;55.018;73.536;2023-04-24T15:05:30;0.00;0.00;0.00
65360;PMS5003;51958;55.018;73.536;2023-04-24T15:08:31;0.00;0.00;0.00
65360;PMS5003;51958;55.018;73.536;2023-04-24T15:11:43;0.00;0.00;0.00
65360;PMS5003;51958;55.018;73.536;2023-04-24T15:14:44;0.00;0.00;0.00
65360;PMS5003;51958;55.018;73.536;2023-04-24T15:17:50;0.00;0.00;0.00
65360;PMS5003;51958;55.018;73.536;2023-04-24T15:20:51;0.00;0.00;0.00
65360;PMS5003;51958;55.018;73.536;2023-04-24T15:24:02;0.00;0.00;0.00
65360;PMS5003;51958;55.018;73.536;2023-04-24T15:27:13;0.00;0.00;0.00
65360;PMS5003;51958;55.018;73.536;2023-04-24T15:30:16;0.00;0.00;0.00
65360;PMS5003;51958;55.018;73.536;2023-04-24T15:33:17;0.00;0.00;0.00
65360;PMS5003;51958;55.018;73.536;2023-04-24T15:36:28;0.00;0.00;0.00
65360;PMS5003;51958;55.018;73.536;2023-04-24T15:39:29;0.00;0.00;0.00
65360;PMS5003;51958;55.018;73.536;2023-04-24T15:42:30;0.00;0.00;0.00
65360;PMS5003;51958;55.018;73.536;2023-04-24T15:45:33;0.00;0.00;0.00
65360;PMS5003;51958;55.018;73.536;2023-04-24T15:48:36;0.00;0.00;0.00
65360;PMS5003;51958;55.018;73.536;2023-04-24T15:51:38;0.00;0.00;0.00
65360;PMS5003;51958;55.018;73.536;2023-04-24T15:54:39;0.00;0.00;0.00
65360;PMS5003;51958;55.018;73.536;2023-04-24T15:57:41;0.00;0.00;0.00
65360;PMS5003;51958;55.018;73.536;2023-04-24T16:00:42;0.00;0.00;0.00
65360;PMS5003;51958;55.018;73.536;2023-04-24T16:03:43;0.00;0.00;0.00
65360;PMS5003;51958;55.018;73.536;2023-04-24T16:06:54;0.00;0.00;0.00
65360;PMS5003;51958;55.018;73.536;2023-04-24T16:09:57;0.00;0.00;0.00
65360;PMS5003;51958;55.018;73.536;2023-04-24T16:12:58;0.00;0.00;0.00
65360;PMS5003;51958;55.018;73.536;2023-04-24T16:16:00;0.00;0.00;0.00
65360;PMS5003;51958;55.018;73.536;2023-04-24T16:19:02;0.00;0.00;0.00
65360;PMS5003;51958;55.018;73.536;2023-04-24T16:22:03;0.00;0.00;0.00
65360;PMS5003;51958;55.018;73.536;2023-04-24T16:25:04;0.00;0.00;0.00
65360;PMS5003;51958;55.018;73.536;2023-04-24T16:28:07;1.00;0.00;0.00
65360;PMS5003;51958;55.018;73.536;2023-04-24T16:31:09;0.00;0.00;0.00
65360;PMS5003;51958;55.018;73.536;2023-04-24T16:34:10;0.00;0.00;0.00
65360;PMS5003;51958;55.018;73.536;2023-04-24T16:37:11;0.00;0.00;0.00
65360;PMS5003;51958;55.018;73.536;2023-04-24T16:40:14;0.00;0.00;0.00
65360;PMS5003;51958;55.018;73.536;2023-04-24T16:43:15;0.00;0.00;0.00
65360;PMS5003;51958;55.018;73.536;2023-04-24T16:46:16;0.00;0.00;0.00
65360;PMS5003;51958;55.018;73.536;2023-04-24T16:49:28;0.00;0.00;0.00
65360;PMS5003;51958;55.018;73.536;2023-04-24T16:52:35;0.00;0.00;0.00
65360;PMS5003;51958;55.018;73.536;2023-04-24T16:55:37;0.00;0.00;0.00
65360;PMS5003;51958;55.018;73.536;2023-04-24T16:58:38;0.00;0.00;0.00
65360;PMS5003;51958;55.018;73.536;2023-04-24T17:01:44;0.00;0.00;0.00
65360;PMS5003;51958;55.018;73.536;2023-04-24T17:04:45;0.00;0.00;0.00
65360;PMS5003;51958;55.018;73.536;2023-04-24T17:07:50;0.00;0.00;0.00
65360;PMS5003;51958;55.018;73.536;2023-04-24T17:10:51;0.00;0.00;0.00
65360;PMS5003;51958;55.018;73.536;2023-04-24T17:13:52;0.00;0.00;0.00
65360;PMS5003;51958;55.018;73.536;2023-04-24T17:16:54;0.00;0.00;0.00
65360;PMS5003;51958;55.018;73.536;2023-04-24T17:20:00;0.00;0.00;0.00
65360;PMS5003;51958;55.018;73.536;2023-04-24T17:23:01;0.00;0.00;0.00
65360;PMS5003;51958;55.018;73.536;2023-04-24T17:26:02;0.00;0.00;0.00
65360;PMS5003;51958;55.018;73.536;2023-04-24T17:29:03;0.00;0.00;0.00
65360;PMS5003;51958;55.018;73.536;2023-04-24T17:32:10;0.00;0.00;0.00
65360;PMS5003;51958;55.018;73.536;2023-04-24T17:35:11;0.00;0.00;0.00
65360;PMS5003;51958;55.018;73.536;2023-04-24T17:38:13;0.00;0.00;0.00
65360;PMS5003;51958;55.018;73.536;2023-04-24T17:41:14;0.00;0.00;0.00
65360;PMS5003;51958;55.018;73.536;2023-04-24T17:44:26;0.00;0.00;0.00
65360;PMS5003;51958;55.018;73.536;2023-04-24T17:47:27;0.00;0.00;0.00
65360;PMS5003;51958;55.018;73.536;2023-04-24T17:50:30;0.00;0.00;0.00
65360;PMS5003;51958;55.018;73.536;2023-04-24T17:53:31;0.00;0.00;0.00
65360;PMS5003;51958;55.018;73.536;2023-04-24T17:56:32;0.00;0.00;0.00
65360;PMS5003;51958;55.018;73.536;2023-04-24T17:59:33;0.00;0.00;0.00
65360;PMS5003;51958;55.018;73.536;2023-04-24T18:02:41;0.00;0.00;0.00
65360;PMS5003;51958;55.018;73.536;2023-04-24T18:05:43;0.00;0.00;0.00
65360;PMS5003;51958;55.018;73.536;2023-04-24T18:08:44;0.00;0.00;0.00
65360;PMS5003;51958;55.018;73.536;2023-04-24T18:11:45;0.00;0.00;0.00
65360;PMS5003;51958;55.018;73.536;2023-04-24T18:14:47;0.00;0.00;0.00
65360;PMS5003;51958;55.018;73.536;2023-04-24T18:17:49;0.00;0.00;0.00
65360;PMS5003;51958;55.018;73.536;2023-04-24T18:20:50;0.00;0.00;0.00
65360;PMS5003;51958;55.018;73.536;2023-04-24T18:23:51;0.00;0.00;0.00
65360;PMS5003;51958;55.018;73.536;2023-04-24T18:26:52;0.00;0.00;0.00
65360;PMS5003;51958;55.018;73.536;2023-04-24T18:29:53;0.00;0.00;0.00
65360;PMS5003;51958;55.018;73.536;2023-04-24T18:32:59;0.00;0.00;0.00
65360;PMS5003;51958;55.018;73.536;2023-04-24T18:36:05;0.00;0.00;0.00
65360;PMS5003;51958;55.018;73.536;2023-04-24T18:39:08;0.00;0.00;0.00
65360;PMS5003;51958;55.018;73.536;2023-04-24T18:42:13;0.00;0.00;0.00
65360;PMS5003;51958;55.018;73.536;2023-04-24T18:45:14;1.00;0.00;0.00
65360;PMS5003;51958;55.018;73.536;2023-04-24T18:48:16;0.00;0.00;0.00
65360;PMS5003;51958;55.018;73.536;2023-04-24T18:51:18;0.00;0.00;0.00
65360;PMS5003;51958;55.018;73.536;2023-04-24T18:54:19;0.67;0.67;0.00
65360;PMS5003;51958;55.018;73.536;2023-04-24T18:57:20;0.00;0.00;0.00
65360;PMS5003;51958;55.018;73.536;2023-04-24T19:00:23;0.67;0.00;0.00
65360;PMS5003;51958;55.018;73.536;2023-04-24T19:03:29;2.00;1.00;0.00
65360;PMS5003;51958;55.018;73.536;2023-04-24T19:06:33;2.00;2.00;0.00
65360;PMS5003;51958;55.018;73.536;2023-04-24T19:09:34;3.00;3.00;0.00
65360;PMS5003;51958;55.018;73.536;2023-04-24T19:12:36;3.00;3.00;0.00
65360;PMS5003;51958;55.018;73.536;2023-04-24T19:15:37;3.00;3.00;0.00
65360;PMS5003;51958;55.018;73.536;2023-04-24T19:18:49;3.00;3.00;0.00
65360;PMS5003;51958;55.018;73.536;2023-04-24T19:21:50;3.00;3.00;0.00
65360;PMS5003;51958;55.018;73.536;2023-04-24T19:25:01;4.00;3.00;1.00
65360;PMS5003;51958;55.018;73.536;2023-04-24T19:28:03;4.00;4.00;1.00
65360;PMS5003;51958;55.018;73.536;2023-04-24T19:31:04;5.00;4.00;1.00
65360;PMS5003;51958;55.018;73.536;2023-04-24T19:34:09;3.00;3.00;1.00
65360;PMS5003;51958;55.018;73.536;2023-04-24T19:37:20;4.00;4.00;1.00
65360;PMS5003;51958;55.018;73.536;2023-04-24T19:40:27;3.00;3.00;2.00
65360;PMS5003;51958;55.018;73.536;2023-04-24T19:43:28;2.00;2.00;1.00
65360;PMS5003;51958;55.018;73.536;2023-04-24T19:46:29;4.50;4.00;0.00
65360;PMS5003;51958;55.018;73.536;2023-04-24T19:49:31;7.00;4.00;1.00
65360;PMS5003;51958;55.018;73.536;2023-04-24T19:52:37;6.00;3.00;1.00
65360;PMS5003;51958;55.018;73.536;2023-04-24T19:55:43;5.00;5.00;2.00
65360;PMS5003;51958;55.018;73.536;2023-04-24T19:58:44;9.00;9.00;5.00
65360;PMS5003;51958;55.018;73.536;2023-04-24T20:01:45;14.00;13.00;7.00
65360;PMS5003;51958;55.018;73.536;2023-04-24T20:04:46;12.00;11.50;6.00
65360;PMS5003;51958;55.018;73.536;2023-04-24T20:07:49;15.00;14.00;6.00
65360;PMS5003;51958;55.018;73.536;2023-04-24T20:10:51;17.00;16.50;8.00
65360;PMS5003;51958;55.018;73.536;2023-04-24T20:13:54;19.00;16.00;9.00
65360;PMS5003;51958;55.018;73.536;2023-04-24T20:17:05;20.00;17.00;10.00
65360;PMS5003;51958;55.018;73.536;2023-04-24T20:20:07;20.00;18.00;10.00
65360;PMS5003;51958;55.018;73.536;2023-04-24T20:23:10;20.00;18.50;10.00
65360;PMS5003;51958;55.018;73.536;2023-04-24T20:26:11;20.00;17.00;10.00
65360;PMS5003;51958;55.018;73.536;2023-04-24T20:29:12;20.00;19.00;11.00
65360;PMS5003;51958;55.018;73.536;2023-04-24T20:32:23;16.00;15.00;7.50
65360;PMS5003;51958;55.018;73.536;2023-04-24T20:35:24;14.00;13.00;5.00
65360;PMS5003;51958;55.018;73.536;2023-04-24T20:38:25;14.33;14.00;6.00
65360;PMS5003;51958;55.018;73.536;2023-04-24T20:41:26;14.67;12.00;6.00
65360;PMS5003;51958;55.018;73.536;2023-04-24T20:44:32;11.00;10.00;4.00
65360;PMS5003;51958;55.018;73.536;2023-04-24T20:47:43;11.00;8.00;3.00
65360;PMS5003;51958;55.018;73.536;2023-04-24T20:50:50;11.00;7.00;4.00
65360;PMS5003;51958;55.018;73.536;2023-04-24T20:53:53;7.00;5.00;2.00
65360;PMS5003;51958;55.018;73.536;2023-04-24T20:56:54;5.00;5.00;2.00
65360;PMS5003;51958;55.018;73.536;2023-04-24T20:59:57;5.00;5.00;2.00
65360;PMS5003;51958;55.018;73.536;2023-04-24T21:03:17;4.00;4.00;1.00
65360;PMS5003;51958;55.018;73.536;2023-04-24T21:06:18;5.00;5.00;1.00
65360;PMS5003;51958;55.018;73.536;2023-04-24T21:09:19;3.00;3.00;1.00
65360;PMS5003;51958;55.018;73.536;2023-04-24T21:12:20;2.00;2.00;0.33
65360;PMS5003;51958;55.018;73.536;2023-04-24T21:15:22;1.33;1.33;0.00
65360;PMS5003;51958;55.018;73.536;2023-04-24T21:18:23;2.33;2.00;0.00
65360;PMS5003;51958;55.018;73.536;2023-04-24T21:21:25;3.00;3.00;0.00
65360;PMS5003;51958;55.018;73.536;2023-04-24T21:24:26;5.00;3.00;1.00
65360;PMS5003;51958;55.018;73.536;2023-04-24T21:27:28;5.00;4.00;2.00
65360;PMS5003;51958;55.018;73.536;2023-04-24T21:30:30;3.67;3.33;2.33
65360;PMS5003;51958;55.018;73.536;2023-04-24T21:33:31;5.33;4.67;2.00
65360;PMS5003;51958;55.018;73.536;2023-04-24T21:36:35;4.00;4.00;2.00
65360;PMS5003;51958;55.018;73.536;2023-04-24T21:39:41;5.33;5.00;2.33
65360;PMS5003;51958;55.018;73.536;2023-04-24T21:42:47;8.00;7.50;3.00
65360;PMS5003;51958;55.018;73.536;2023-04-24T21:45:49;8.00;6.00;2.00
65360;PMS5003;51958;55.018;73.536;2023-04-24T21:48:52;8.00;7.50;3.00
65360;PMS5003;51958;55.018;73.536;2023-04-24T21:51:53;11.00;9.00;4.50
65360;PMS5003;51958;55.018;73.536;2023-04-24T21:54:58;12.00;8.50;4.00
65360;PMS5003;51958;55.018;73.536;2023-04-24T21:58:04;5.00;4.00;2.00
65360;PMS5003;51958;55.018;73.536;2023-04-24T22:01:11;4.00;3.00;2.00
65360;PMS5003;51958;55.018;73.536;2023-04-24T22:04:15;5.00;4.00;1.00
65360;PMS5003;51958;55.018;73.536;2023-04-24T22:07:16;3.00;3.00;1.00
65360;PMS5003;51958;55.018;73.536;2023-04-24T22:10:18;4.00;4.00;1.00
65360;PMS5003;51958;55.018;73.536;2023-04-24T22:13:20;5.00;4.50;2.00
65360;PMS5003;51958;55.018;73.536;2023-04-24T22:16:21;5.50;5.50;3.00
65360;PMS5003;51958;55.018;73.536;2023-04-24T22:19:26;6.00;5.00;2.50
65360;PMS5003;51958;55.018;73.536;2023-04-24T22:22:28;6.67;6.67;2.67
65360;PMS5003;51958;55.018;73.536;2023-04-24T22:25:28;8.00;6.00;3.00
65360;PMS5003;51958;55.018;73.536;2023-04-24T22:28:31;7.50;6.00;3.00
65360;PMS5003;51958;55.018;73.536;2023-04-24T22:31:33;7.00;7.00;3.00
65360;PMS5003;51958;55.018;73.536;2023-04-24T22:34:34;9.00;7.00;3.00
65360;PMS5003;51958;55.018;73.536;2023-04-24T22:37:35;9.00;8.00;4.00
65360;PMS5003;51958;55.018;73.536;2023-04-24T22:40:38;10.00;8.00;4.00
65360;PMS5003;51958;55.018;73.536;2023-04-24T22:43:40;12.00;9.00;5.00
65360;PMS5003;51958;55.018;73.536;2023-04-24T22:46:41;10.33;9.33;5.00
65360;PMS5003;51958;55.018;73.536;2023-04-24T22:49:43;10.00;8.00;4.00
65360;PMS5003;51958;55.018;73.536;2023-04-24T22:52:54;11.00;9.33;5.00
65360;PMS5003;51958;55.018;73.536;2023-04-24T22:56:05;10.33;8.00;3.00
65360;PMS5003;51958;55.018;73.536;2023-04-24T22:59:07;8.33;6.00;3.00
65360;PMS5003;51958;55.018;73.536;2023-04-24T23:02:13;11.33;10.67;4.33
65360;PMS5003;51958;55.018;73.536;2023-04-24T23:05:14;12.00;9.33;3.00
65360;PMS5003;51958;55.018;73.536;2023-04-24T23:08:15;13.00;10.00;4.00
65360;PMS5003;51958;55.018;73.536;2023-04-24T23:11:26;13.00;7.00;4.00
65360;PMS5003;51958;55.018;73.536;2023-04-24T23:14:27;13.00;10.00;5.00
65360;PMS5003;51958;55.018;73.536;2023-04-24T23:17:30;14.00;10.00;4.50
65360;PMS5003;51958;55.018;73.536;2023-04-24T23:20:36;13.00;8.00;3.00
65360;PMS5003;51958;55.018;73.536;2023-04-24T23:23:39;10.00;7.00;3.00
65360;PMS5003;51958;55.018;73.536;2023-04-24T23:26:45;11.00;8.00;3.00
65360;PMS5003;51958;55.018;73.536;2023-04-24T23:29:46;9.00;7.00;3.00
65360;PMS5003;51958;55.018;73.536;2023-04-24T23:32:47;8.00;6.50;3.00
65360;PMS5003;51958;55.018;73.536;2023-04-24T23:35:53;10.00;7.00;2.00
65360;PMS5003;51958;55.018;73.536;2023-04-24T23:38:54;10.00;6.00;3.00
65360;PMS5003;51958;55.018;73.536;2023-04-24T23:41:56;7.50;7.00;3.00
65360;PMS5003;51958;55.018;73.536;2023-04-24T23:45:09;6.00;5.00;3.00
65360;PMS5003;51958;55.018;73.536;2023-04-24T23:48:10;6.00;4.00;2.00